Time;durP1;ratioP1;P1;durP2;ratioP2;P2;SDS_P1;SDS_P2;PMS_P1;PMS_P2;Temp;Humidity;BMP_temperature;BMP_pressure;BME280_temperature;BME280_humidity;BME280_pressure;Samples;Min_cycle;Max_cycle;Signal;HPM_P1;HPM_P2
2022/03/12 00:00:42;;;;;;;10.75;5.13;;;6.90;63.20;;;;;;5109523;27;20035;-82
2022/03/12 00:03:09;;;;;;;11.40;5.18;;;6.90;62.60;;;;;;5130008;27;20084;-82
2022/03/12 00:05:36;;;;;;;9.13;4.72;;;6.90;63.00;;;;;;5125443;27;20522;-82
2022/03/12 00:08:07;;;;;;;11.13;5.78;;;6.90;63.10;;;;;;5148810;27;20030;-86
2022/03/12 00:10:33;;;;;;;15.07;5.40;;;6.90;62.40;;;;;;5114182;27;20054;-82
2022/03/12 00:13:01;;;;;;;12.85;5.90;;;6.90;63.00;;;;;;5130602;27;20027;-83
2022/03/12 00:15:32;;;;;;;9.88;5.38;;;6.90;62.60;;;;;;5130398;27;20118;-82
2022/03/12 00:17:58;;;;;;;12.10;5.47;;;6.90;63.20;;;;;;5113242;27;20070;-82
2022/03/12 00:20:29;;;;;;;10.48;5.38;;;7.10;63.00;;;;;;5140654;27;20031;-82
2022/03/12 00:22:56;;;;;;;13.02;5.93;;;6.90;63.00;;;;;;5112881;27;20065;-86
2022/03/12 00:25:24;;;;;;;11.63;5.40;;;6.80;63.20;;;;;;5130314;27;20043;-86
2022/03/12 00:27:51;;;;;;;14.90;5.60;;;6.80;63.20;;;;;;5113518;27;20054;-86
2022/03/12 00:30:27;;;;;;;10.80;5.38;;;6.80;62.80;;;;;;5101942;27;20464;-83
2022/03/12 00:32:53;;;;;;;12.15;5.90;;;6.80;63.30;;;;;;5124259;27;20099;-81
2022/03/12 00:35:22;;;;;;;15.40;5.03;;;6.80;63.00;;;;;;5110356;27;20035;-82
2022/03/12 00:37:48;;;;;;;13.07;5.85;;;6.80;63.00;;;;;;5113624;27;20126;-81
2022/03/12 00:40:15;;;;;;;14.32;4.95;;;6.80;63.40;;;;;;5130543;27;20610;-82
2022/03/12 00:42:42;;;;;;;11.00;5.50;;;7.40;63.90;;;;;;5129438;27;20051;-83
2022/03/12 00:45:08;;;;;;;12.68;5.55;;;6.70;63.60;;;;;;5113313;27;20042;-82
2022/03/12 00:47:34;;;;;;;10.57;5.40;;;6.70;63.90;;;;;;5130139;27;20089;-82
2022/03/12 00:50:00;;;;;;;11.18;5.55;;;6.70;63.80;;;;;;5118477;27;20090;-82
2022/03/12 00:52:25;;;;;;;13.77;5.72;;;6.60;64.20;;;;;;5129079;27;20035;-82
2022/03/12 00:54:51;;;;;;;14.50;5.53;;;6.60;63.90;;;;;;5114612;27;20558;-82
2022/03/12 00:57:17;;;;;;;11.38;5.30;;;6.60;63.80;;;;;;5113323;27;20093;-82
2022/03/12 00:59:44;;;;;;;11.73;5.47;;;6.60;63.90;;;;;;5118015;27;20144;-82
2022/03/12 01:02:13;;;;;;;11.93;5.95;;;6.60;64.10;;;;;;5129625;27;20043;-81
2022/03/12 01:04:39;;;;;;;12.02;5.65;;;6.60;64.10;;;;;;5130807;27;20467;-82
2022/03/12 01:07:05;;;;;;;11.00;5.75;;;7.40;64.20;;;;;;5130787;27;20125;-82
2022/03/12 01:09:30;;;;;;;13.07;5.70;;;6.70;64.00;;;;;;5113284;27;20038;-83
2022/03/12 01:11:56;;;;;;;16.98;5.30;;;6.60;64.30;;;;;;5130576;27;20495;-82
2022/03/12 01:14:22;;;;;;;13.68;5.68;;;6.60;64.00;;;;;;5128735;27;20039;-83
2022/03/12 01:16:48;;;;;;;13.57;5.78;;;6.60;63.50;;;;;;5129917;27;20047;-83
2022/03/12 01:19:15;;;;;;;14.32;5.40;;;6.60;63.80;;;;;;5130526;27;20414;-85
2022/03/12 01:21:41;;;;;;;12.45;5.65;;;6.60;64.30;;;;;;5112314;27;20483;-81
2022/03/12 01:24:07;;;;;;;15.35;5.95;;;6.60;63.80;;;;;;5111875;27;20395;-82
2022/03/12 01:26:35;;;;;;;11.70;5.63;;;6.60;64.30;;;;;;5143128;27;20039;-83
2022/03/12 01:29:01;;;;;;;12.00;5.30;;;6.70;63.60;;;;;;5146340;27;20379;-81
2022/03/12 01:31:27;;;;;;;11.82;5.20;;;6.70;63.40;;;;;;5129558;27;20118;-82
2022/03/12 01:33:53;;;;;;;11.73;6.00;;;6.70;64.00;;;;;;5123108;28;20230;-84
2022/03/12 01:36:19;;;;;;;10.85;5.65;;;6.70;64.20;;;;;;5129298;27;20039;-82
2022/03/12 01:38:48;;;;;;;11.15;5.80;;;6.70;63.80;;;;;;5129271;27;20083;-81
2022/03/12 01:41:20;;;;;;;12.02;5.25;;;6.70;63.80;;;;;;5111920;27;20118;-82
2022/03/12 01:43:47;;;;;;;10.32;5.80;;;6.70;63.80;;;;;;5124084;27;20031;-83
2022/03/12 01:46:13;;;;;;;11.30;5.78;;;6.70;63.60;;;;;;5124892;27;20039;-82
2022/03/12 01:48:45;;;;;;;10.57;5.15;;;6.70;63.40;;;;;;5100754;27;20055;-81
2022/03/12 01:51:11;;;;;;;14.60;5.88;;;6.90;63.60;;;;;;5110803;27;20127;-82
2022/03/12 01:53:37;;;;;;;12.15;5.32;;;7.60;64.00;;;;;;5144660;27;20097;-81
2022/03/12 01:56:03;;;;;;;11.20;5.57;;;6.70;63.30;;;;;;5128468;27;20031;-82
2022/03/12 01:58:29;;;;;;;10.52;5.45;;;6.80;63.30;;;;;;5105384;27;20043;-82
2022/03/12 02:00:57;;;;;;;15.82;6.25;;;6.80;63.70;;;;;;5112374;27;20090;-82
2022/03/12 02:03:28;;;;;;;9.93;5.32;;;6.70;63.30;;;;;;5120159;27;20069;-84
2022/03/12 02:05:55;;;;;;;9.75;5.25;;;6.80;63.20;;;;;;5115570;27;20066;-81
2022/03/12 02:08:21;;;;;;;12.68;5.68;;;6.80;63.20;;;;;;5120854;27;20162;-81
2022/03/12 02:10:50;;;;;;;12.73;5.43;;;7.40;63.40;;;;;;5105980;27;20204;-80
2022/03/12 02:13:17;;;;;;;12.55;6.13;;;6.80;63.10;;;;;;5112506;27;20043;-82
2022/03/12 02:15:44;;;;;;;9.52;5.03;;;6.90;63.50;;;;;;5115237;27;20044;-81
2022/03/12 02:18:13;;;;;;;10.80;5.45;;;6.80;63.70;;;;;;5132618;27;20518;-81
2022/03/12 02:20:39;;;;;;;15.07;5.68;;;6.80;63.40;;;;;;5146672;27;20046;-81
2022/03/12 02:23:07;;;;;;;10.35;5.50;;;6.80;63.60;;;;;;5110649;27;20031;-83
2022/03/12 02:25:34;;;;;;;11.07;5.40;;;6.70;63.90;;;;;;5144089;27;20046;-81
2022/03/12 02:28:09;;;;;;;12.98;5.97;;;6.70;63.80;;;;;;5108212;27;20035;-81
2022/03/12 02:30:48;;;;;;;11.63;5.63;;;6.70;63.80;;;;;;5086962;27;20532;-81
2022/03/12 02:33:14;;;;;;;11.23;5.78;;;6.70;63.90;;;;;;5103088;27;20051;-81
2022/03/12 02:35:42;;;;;;;11.30;5.57;;;7.30;64.30;;;;;;5104263;27;20046;-88
2022/03/12 02:38:08;;;;;;;12.23;5.50;;;6.70;65.00;;;;;;5106735;27;20035;-80
2022/03/12 02:40:34;;;;;;;9.90;5.32;;;6.60;64.20;;;;;;5144612;27;20601;-81
2022/03/12 02:43:01;;;;;;;14.25;5.88;;;6.60;64.80;;;;;;5119987;27;21788;-80
2022/03/12 02:45:29;;;;;;;12.02;6.25;;;6.60;64.80;;;;;;5118404;27;20040;-81
2022/03/12 02:47:55;;;;;;;12.65;5.47;;;6.50;65.10;;;;;;5107851;27;20425;-82
2022/03/12 02:50:23;;;;;;;12.63;5.40;;;6.50;65.40;;;;;;5119846;27;20389;-82
2022/03/12 02:52:49;;;;;;;11.05;5.85;;;6.50;65.80;;;;;;5107181;27;20120;-81
2022/03/12 02:55:21;;;;;;;10.27;5.30;;;6.40;65.50;;;;;;5107996;27;20039;-82
2022/03/12 02:57:48;;;;;;;15.80;5.47;;;6.40;65.70;;;;;;5113131;27;20478;-82
2022/03/12 03:00:16;;;;;;;14.43;6.30;;;6.40;65.90;;;;;;5134005;27;20074;-82
2022/03/12 03:02:49;;;;;;;11.65;5.60;;;6.40;65.90;;;;;;5131214;27;20030;-82
2022/03/12 03:05:30;;;;;;;10.75;5.70;;;6.70;65.70;;;;;;5108611;27;20503;-82
2022/03/12 03:07:57;;;;;;;12.52;6.00;;;6.40;65.80;;;;;;5110710;27;20045;-82
2022/03/12 03:10:38;;;;;;;11.75;6.10;;;6.40;65.80;;;;;;5102779;27;20046;-84
2022/03/12 03:13:30;;;;;;;11.85;5.93;;;6.40;65.20;;;;;;5142048;27;20039;-81
2022/03/12 03:16:00;;;;;;;12.63;6.18;;;6.90;65.90;;;;;;5127014;27;20047;-82
2022/03/12 03:18:29;;;;;;;12.95;6.20;;;6.40;65.80;;;;;;5117557;27;20066;-81
2022/03/12 03:20:56;;;;;;;11.52;5.78;;;7.30;66.20;;;;;;5122102;27;20042;-81
2022/03/12 03:23:24;;;;;;;10.18;6.10;;;6.40;65.70;;;;;;5130026;27;20171;-82
2022/03/12 03:25:51;;;;;;;12.82;5.63;;;6.40;65.90;;;;;;5111474;27;20047;-81
2022/03/12 03:28:17;;;;;;;11.45;5.70;;;6.40;65.80;;;;;;5102402;27;20051;-81
2022/03/12 03:30:43;;;;;;;11.85;5.72;;;6.40;65.50;;;;;;5125457;27;20076;-81
2022/03/12 03:33:12;;;;;;;12.98;6.70;;;7.40;66.20;;;;;;5142870;27;20475;-81
2022/03/12 03:35:38;;;;;;;12.50;6.10;;;6.20;65.80;;;;;;5095931;27;20198;-81
2022/03/12 03:38:05;;;;;;;12.30;5.85;;;7.00;66.10;;;;;;5114070;27;20035;-81
2022/03/12 03:40:31;;;;;;;12.93;5.65;;;6.70;66.00;;;;;;5115852;27;20055;-81
2022/03/12 03:42:57;;;;;;;9.43;5.38;;;6.40;66.50;;;;;;5108528;27;20046;-81
2022/03/12 03:45:27;;;;;;;11.73;5.63;;;6.40;66.10;;;;;;5110931;27;20038;-82
2022/03/12 03:47:54;;;;;;;11.65;5.82;;;6.40;66.20;;;;;;5108571;27;20331;-81
2022/03/12 03:50:25;;;;;;;11.73;5.72;;;6.40;66.60;;;;;;5111779;27;20062;-82
2022/03/12 03:53:03;;;;;;;16.95;5.57;;;7.00;66.60;;;;;;5128406;27;20069;-82
2022/03/12 03:55:33;;;;;;;12.95;5.90;;;6.40;66.30;;;;;;5122162;27;20507;-82
2022/03/12 03:58:00;;;;;;;12.10;6.07;;;6.40;66.20;;;;;;5108499;27;20041;-82
2022/03/12 04:00:27;;;;;;;11.15;5.57;;;6.80;66.10;;;;;;5127699;27;20035;-81
2022/03/12 04:03:04;;;;;;;11.75;5.72;;;6.40;66.70;;;;;;5109163;27;20380;-81
2022/03/12 04:05:38;;;;;;;14.40;5.75;;;6.30;66.30;;;;;;5125379;27;20046;-81
2022/03/12 04:08:07;;;;;;;10.85;5.45;;;6.30;66.30;;;;;;5126178;27;20456;-81
2022/03/12 04:10:36;;;;;;;12.35;5.78;;;6.30;66.30;;;;;;5121059;27;20112;-81
2022/03/12 04:13:14;;;;;;;11.30;5.55;;;6.50;66.50;;;;;;5118670;27;20042;-82
2022/03/12 04:15:40;;;;;;;9.63;5.53;;;6.20;66.80;;;;;;5128995;27;20495;-81
2022/03/12 04:18:07;;;;;;;11.18;6.22;;;6.10;66.90;;;;;;5120488;27;20042;-81
2022/03/12 04:20:34;;;;;;;11.00;5.50;;;6.10;67.00;;;;;;5111324;27;20034;-82
2022/03/12 04:23:00;;;;;;;12.25;5.72;;;6.10;67.00;;;;;;5129248;27;20038;-81
2022/03/12 04:25:27;;;;;;;11.35;6.28;;;6.10;67.30;;;;;;5130420;27;20659;-81
2022/03/12 04:27:53;;;;;;;10.00;5.38;;;6.10;67.20;;;;;;5113243;27;20031;-81
2022/03/12 04:30:19;;;;;;;10.98;6.22;;;6.00;67.40;;;;;;5129308;27;20047;-82
2022/03/12 04:32:46;;;;;;;13.43;6.57;;;6.00;67.00;;;;;;5128581;27;20074;-81
2022/03/12 04:35:12;;;;;;;14.52;6.13;;;6.70;67.50;;;;;;5127518;27;20436;-81
2022/03/12 04:37:39;;;;;;;11.05;6.50;;;6.10;67.60;;;;;;5112920;27;20559;-81
2022/03/12 04:40:10;;;;;;;10.65;5.68;;;6.10;67.20;;;;;;5111968;27;20031;-81
2022/03/12 04:42:44;;;;;;;14.15;6.13;;;6.10;67.60;;;;;;5103743;27;20511;-81
2022/03/12 04:45:25;;;;;;;11.77;5.65;;;6.10;67.70;;;;;;5105681;27;20048;-81
2022/03/12 04:47:53;;;;;;;12.25;5.80;;;6.50;67.70;;;;;;5140750;27;20075;-80
2022/03/12 04:50:21;;;;;;;17.15;6.60;;;6.10;68.30;;;;;;5124948;27;20034;-80
2022/03/12 04:52:52;;;;;;;11.63;5.63;;;6.00;67.20;;;;;;5125313;27;20503;-81
2022/03/12 04:55:21;;;;;;;12.15;6.15;;;6.00;67.90;;;;;;5123093;27;20422;-80
2022/03/12 04:57:48;;;;;;;11.13;5.95;;;6.00;68.20;;;;;;5111216;27;20098;-81
2022/03/12 05:00:25;;;;;;;11.52;6.40;;;6.00;68.40;;;;;;5108753;27;20462;-82
2022/03/12 05:03:03;;;;;;;12.93;6.43;;;6.00;68.20;;;;;;5122654;27;20039;-81
2022/03/12 05:05:32;;;;;;;14.65;6.20;;;6.00;68.50;;;;;;5125501;27;20043;-81
2022/03/12 05:08:00;;;;;;;10.65;5.50;;;6.00;67.70;;;;;;5124739;27;20117;-81
2022/03/12 05:10:27;;;;;;;12.95;5.97;;;6.00;68.10;;;;;;5124177;27;20193;-82
2022/03/12 05:13:00;;;;;;;13.93;6.10;;;6.10;69.00;;;;;;5143279;27;20043;-82
2022/03/12 05:15:37;;;;;;;11.10;6.13;;;6.10;67.60;;;;;;5123648;27;20051;-83
2022/03/12 05:18:07;;;;;;;11.80;5.82;;;6.20;67.40;;;;;;5110465;27;20047;-82
2022/03/12 05:20:35;;;;;;;14.13;6.15;;;6.20;67.70;;;;;;5107646;27;20041;-81
2022/03/12 05:23:01;;;;;;;12.85;6.28;;;6.30;68.10;;;;;;5124817;27;20558;-82
2022/03/12 05:25:27;;;;;;;13.05;6.50;;;6.20;67.90;;;;;;5105451;27;20051;-83
2022/03/12 05:27:54;;;;;;;12.45;5.70;;;6.30;68.00;;;;;;5128230;27;20477;-81
2022/03/12 05:30:21;;;;;;;10.90;5.88;;;6.30;68.20;;;;;;5097923;27;20096;-82
2022/03/12 05:32:48;;;;;;;11.45;5.78;;;6.30;67.80;;;;;;5110749;27;20207;-82
2022/03/12 05:35:15;;;;;;;12.05;6.25;;;6.30;68.00;;;;;;5132113;27;20146;-82
2022/03/12 05:37:41;;;;;;;16.67;6.78;;;6.50;68.20;;;;;;5111989;27;20621;-83
2022/03/12 05:40:09;;;;;;;12.70;6.30;;;6.30;67.30;;;;;;5129602;27;20047;-82
2022/03/12 05:42:35;;;;;;;13.02;6.30;;;6.30;67.90;;;;;;5120486;27;20414;-81
2022/03/12 05:45:08;;;;;;;11.55;5.80;;;6.40;67.70;;;;;;5116839;27;20050;-81
2022/03/12 05:47:36;;;;;;;12.27;6.00;;;6.30;68.20;;;;;;5112855;27;20135;-82
2022/03/12 05:50:03;;;;;;;12.40;6.28;;;6.30;69.40;;;;;;5130083;27;20398;-82
2022/03/12 05:52:29;;;;;;;12.50;6.00;;;6.40;69.50;;;;;;5128317;27;20050;-81
2022/03/12 05:54:55;;;;;;;12.07;6.55;;;6.30;70.30;;;;;;5126619;27;20034;-83
2022/03/12 05:57:21;;;;;;;14.48;7.07;;;6.30;71.00;;;;;;5114616;27;20745;-82
2022/03/12 05:59:48;;;;;;;13.98;6.38;;;6.40;70.70;;;;;;5108984;27;20066;-82
2022/03/12 06:02:14;;;;;;;9.70;5.70;;;6.40;71.10;;;;;;5133017;27;20049;-81
2022/03/12 06:04:40;;;;;;;12.18;6.20;;;6.20;71.50;;;;;;5127849;27;20545;-81
2022/03/12 06:07:06;;;;;;;11.02;6.05;;;6.40;72.10;;;;;;5109168;27;20604;-81
2022/03/12 06:09:31;;;;;;;12.05;6.07;;;6.40;71.90;;;;;;5127059;27;20121;-82
2022/03/12 06:11:58;;;;;;;12.07;6.28;;;6.40;71.90;;;;;;5109240;27;20107;-82
2022/03/12 06:14:30;;;;;;;12.23;6.18;;;6.40;71.70;;;;;;5108382;27;20036;-82
2022/03/12 06:16:56;;;;;;;17.58;6.70;;;6.40;71.00;;;;;;5146474;27;20043;-81
2022/03/12 06:19:21;;;;;;;13.85;5.80;;;6.40;71.40;;;;;;5124400;27;20030;-83
2022/03/12 06:21:48;;;;;;;10.95;5.65;;;6.40;71.20;;;;;;5143634;27;20039;-82
2022/03/12 06:24:15;;;;;;;11.73;5.80;;;6.40;71.20;;;;;;5102088;27;20030;-81
2022/03/12 06:26:43;;;;;;;10.00;5.45;;;6.40;71.70;;;;;;5111978;27;20042;-81
2022/03/12 06:29:13;;;;;;;13.93;7.22;;;6.30;72.00;;;;;;5122320;27;20050;-82
2022/03/12 06:31:42;;;;;;;12.23;5.80;;;6.30;72.10;;;;;;5146077;27;20514;-82
2022/03/12 06:34:10;;;;;;;12.13;6.30;;;6.20;72.30;;;;;;5120328;27;20073;-82
2022/03/12 06:36:37;;;;;;;11.10;5.88;;;6.20;72.70;;;;;;5104034;27;20058;-82
2022/03/12 06:39:07;;;;;;;12.18;6.60;;;6.10;73.10;;;;;;5104393;27;20560;-80
2022/03/12 06:41:39;;;;;;;12.43;6.95;;;6.00;72.70;;;;;;5109847;27;20265;-83
2022/03/12 06:44:09;;;;;;;13.82;6.65;;;6.00;72.80;;;;;;5097316;27;20039;-82
2022/03/12 06:46:35;;;;;;;14.13;7.00;;;5.90;72.40;;;;;;5114210;27;20046;-82
2022/03/12 06:49:03;;;;;;;11.77;6.38;;;5.90;72.80;;;;;;5109747;27;20034;-82
2022/03/12 06:51:29;;;;;;;11.60;6.20;;;5.90;72.90;;;;;;5108771;27;20476;-81
2022/03/12 06:53:54;;;;;;;12.27;6.70;;;5.80;72.60;;;;;;5125117;27;20042;-82
2022/03/12 06:56:21;;;;;;;11.27;5.95;;;5.80;72.90;;;;;;5124909;27;20095;-81
2022/03/12 06:58:46;;;;;;;13.23;5.78;;;5.80;73.20;;;;;;5110835;27;20043;-82
2022/03/12 07:01:12;;;;;;;18.13;6.57;;;5.80;73.20;;;;;;5112463;27;20133;-81
2022/03/12 07:03:38;;;;;;;12.55;5.85;;;5.80;72.80;;;;;;5097988;27;20284;-82
2022/03/12 07:06:04;;;;;;;10.48;5.65;;;6.30;73.30;;;;;;5109409;27;20039;-81
2022/03/12 07:08:30;;;;;;;11.52;6.47;;;5.90;73.00;;;;;;5105755;27;20045;-82
2022/03/12 07:10:56;;;;;;;16.05;6.07;;;6.00;73.00;;;;;;5098285;27;20046;-82
2022/03/12 07:13:23;;;;;;;12.93;6.10;;;5.90;72.90;;;;;;5107122;27;20143;-81
2022/03/12 07:15:50;;;;;;;12.90;6.47;;;6.20;72.90;;;;;;5128091;27;20047;-81
2022/03/12 07:18:16;;;;;;;11.65;6.18;;;6.30;72.80;;;;;;5123679;27;20046;-80
2022/03/12 07:20:43;;;;;;;12.70;6.03;;;6.50;72.70;;;;;;5126652;27;20073;-81
2022/03/12 07:23:09;;;;;;;13.20;6.03;;;7.00;71.90;;;;;;5113486;27;20066;-81
2022/03/12 07:25:35;;;;;;;14.02;6.60;;;8.30;70.00;;;;;;5136737;27;20039;-82
2022/03/12 07:28:01;;;;;;;11.77;6.70;;;10.00;69.20;;;;;;5129994;27;20055;-81
2022/03/12 07:30:27;;;;;;;13.68;6.90;;;11.30;66.60;;;;;;5126084;27;20051;-81
2022/03/12 07:32:53;;;;;;;12.40;6.50;;;12.30;64.10;;;;;;5110585;27;20726;-82
2022/03/12 07:35:19;;;;;;;12.88;6.63;;;12.60;62.80;;;;;;5101251;27;20462;-81
2022/03/12 07:37:46;;;;;;;13.05;6.80;;;12.40;62.00;;;;;;5098377;27;20047;-82
2022/03/12 07:40:13;;;;;;;17.02;7.00;;;12.70;61.40;;;;;;5101545;27;20406;-82
2022/03/12 07:42:40;;;;;;;14.02;6.88;;;12.60;60.40;;;;;;5095162;27;20115;-81
2022/03/12 07:45:08;;;;;;;11.57;6.65;;;12.60;60.80;;;;;;5103002;27;20415;-81
2022/03/12 07:47:35;;;;;;;11.63;6.68;;;12.80;61.40;;;;;;5117520;27;20046;-80
2022/03/12 07:50:01;;;;;;;13.10;6.55;;;13.20;60.30;;;;;;5104842;27;20053;-82
2022/03/12 07:52:28;;;;;;;14.60;7.85;;;13.80;59.70;;;;;;5095543;27;20134;-81
2022/03/12 07:54:57;;;;;;;13.27;6.70;;;14.20;60.50;;;;;;5103201;27;20046;-81
2022/03/12 07:57:26;;;;;;;14.15;6.65;;;14.50;58.70;;;;;;5099751;27;20050;-81
2022/03/12 07:59:56;;;;;;;16.67;6.72;;;14.10;58.90;;;;;;5123908;27;20047;-81
2022/03/12 08:02:42;;;;;;;12.77;7.05;;;14.10;58.90;;;;;;5096745;27;20047;-82
2022/03/12 08:05:25;;;;;;;15.10;7.50;;;14.50;60.40;;;;;;5136918;27;20050;-82
2022/03/12 08:08:14;;;;;;;13.00;7.38;;;12.60;60.30;;;;;;5116191;27;20577;-81
2022/03/12 08:13:43;;;;;;;16.02;7.10;;;11.10;62.70;;;;;;5111691;27;20085;-82
2022/03/12 08:16:12;;;;;;;13.60;6.78;;;10.90;64.20;;;;;;5123983;27;20062;-80
2022/03/12 08:18:38;;;;;;;14.90;6.95;;;10.80;64.50;;;;;;5099844;27;20354;-81
2022/03/12 08:21:04;;;;;;;18.73;7.57;;;10.70;64.60;;;;;;5110750;27;20102;-82
2022/03/12 08:23:29;;;;;;;11.57;7.00;;;10.50;64.90;;;;;;5088393;27;20047;-82
2022/03/12 08:25:57;;;;;;;12.70;7.00;;;10.40;65.30;;;;;;5102765;27;20043;-81
2022/03/12 08:28:23;;;;;;;14.43;7.38;;;10.30;65.60;;;;;;5096128;27;20046;-82
2022/03/12 08:30:49;;;;;;;12.55;7.30;;;10.80;66.40;;;;;;5109007;27;20526;-83
2022/03/12 08:33:17;;;;;;;17.50;6.90;;;10.60;67.40;;;;;;5112794;27;20630;-83
2022/03/12 08:35:42;;;;;;;14.05;7.47;;;10.90;68.40;;;;;;5117380;27;20497;-82
2022/03/12 08:38:09;;;;;;;14.95;7.35;;;10.40;68.10;;;;;;5104315;27;20038;-83
2022/03/12 08:40:35;;;;;;;13.70;6.50;;;10.50;68.40;;;;;;5129856;27;20050;-81
2022/03/12 08:43:01;;;;;;;18.70;7.60;;;10.70;69.70;;;;;;5096290;27;20131;-81
2022/03/12 08:45:26;;;;;;;12.32;7.50;;;10.80;68.90;;;;;;5117959;27;20107;-81
2022/03/12 08:47:52;;;;;;;12.50;6.70;;;11.20;69.00;;;;;;5117051;27;20675;-82
2022/03/12 08:50:19;;;;;;;12.35;7.35;;;10.90;68.10;;;;;;5119241;27;20046;-81
2022/03/12 08:52:45;;;;;;;16.65;7.47;;;10.80;69.10;;;;;;5118870;27;20045;-81
2022/03/12 08:55:12;;;;;;;14.15;7.50;;;10.80;69.50;;;;;;5110775;27;20401;-81
2022/03/12 08:57:38;;;;;;;12.40;7.18;;;10.70;68.90;;;;;;5103068;27;20083;-82
2022/03/12 09:00:06;;;;;;;12.68;7.20;;;11.00;70.10;;;;;;5138093;27;20038;-85
2022/03/12 09:02:35;;;;;;;13.70;7.60;;;10.70;69.30;;;;;;5126657;27;20055;-81
2022/03/12 09:05:04;;;;;;;13.50;7.80;;;10.70;69.90;;;;;;5119109;27;20073;-84
2022/03/12 09:07:31;;;;;;;14.57;7.63;;;10.80;71.10;;;;;;5137985;27;20045;-82
2022/03/12 09:09:57;;;;;;;12.93;7.47;;;10.80;70.80;;;;;;5121970;27;20053;-80
2022/03/12 09:12:22;;;;;;;13.93;6.93;;;10.90;71.70;;;;;;5137685;27;20042;-83
2022/03/12 09:14:49;;;;;;;16.52;7.75;;;11.00;72.20;;;;;;5120454;27;20066;-81
2022/03/12 09:17:14;;;;;;;14.32;8.20;;;11.20;72.60;;;;;;5104816;27;20039;-81
2022/03/12 09:19:40;;;;;;;15.93;8.55;;;11.30;72.40;;;;;;5123900;27;20066;-83
2022/03/12 09:22:06;;;;;;;16.20;7.10;;;11.50;71.40;;;;;;5107724;27;20039;-82
2022/03/12 09:24:32;;;;;;;14.05;8.40;;;11.70;72.30;;;;;;5104536;27;20039;-81
2022/03/12 09:26:57;;;;;;;13.00;7.18;;;11.70;71.60;;;;;;5098580;27;20047;-81
2022/03/12 09:29:23;;;;;;;15.32;8.07;;;11.60;72.30;;;;;;5095991;27;20072;-80
2022/03/12 09:31:49;;;;;;;12.90;7.63;;;11.60;72.60;;;;;;5119653;27;20054;-81
2022/03/12 09:34:14;;;;;;;14.55;7.90;;;11.60;73.10;;;;;;5143269;27;20035;-81
2022/03/12 09:36:42;;;;;;;17.58;8.25;;;11.70;72.90;;;;;;5102382;27;20111;-81
2022/03/12 09:39:07;;;;;;;17.58;8.43;;;11.70;73.60;;;;;;5102422;27;20043;-80
2022/03/12 09:41:34;;;;;;;14.18;7.80;;;11.70;73.90;;;;;;5145855;27;20058;-81
2022/03/12 09:44:00;;;;;;;17.98;9.13;;;11.80;74.20;;;;;;5110318;27;20522;-80
2022/03/12 09:46:26;;;;;;;15.85;9.10;;;11.70;74.40;;;;;;5127591;27;20035;-81
2022/03/12 09:48:52;;;;;;;14.57;8.07;;;11.80;75.20;;;;;;5124728;27;20396;-81
2022/03/12 09:51:18;;;;;;;12.57;8.07;;;11.90;75.80;;;;;;5119849;27;20038;-88
2022/03/12 09:53:44;;;;;;;12.93;7.78;;;11.90;75.60;;;;;;5110859;27;20046;-82
2022/03/12 09:56:10;;;;;;;13.73;7.80;;;12.60;76.60;;;;;;5123794;27;20104;-83
2022/03/12 09:58:35;;;;;;;13.27;8.02;;;12.30;77.20;;;;;;5108028;27;20043;-81
2022/03/12 10:01:01;;;;;;;14.55;8.43;;;11.90;78.60;;;;;;5123558;27;20376;-82
2022/03/12 10:03:27;;;;;;;14.35;8.40;;;12.10;79.00;;;;;;5145646;27;20047;-82
2022/03/12 10:05:52;;;;;;;15.02;7.85;;;12.10;79.50;;;;;;5128347;27;20117;-81
2022/03/12 10:08:22;;;;;;;16.77;8.15;;;12.40;80.70;;;;;;5125450;27;20056;-81
2022/03/12 10:10:49;;;;;;;14.30;7.75;;;12.20;81.90;;;;;;5124466;27;20047;-81
2022/03/12 10:13:14;;;;;;;16.42;7.70;;;12.80;83.10;;;;;;5103232;27;20050;-81
2022/03/12 10:15:40;;;;;;;14.07;7.05;;;12.40;84.50;;;;;;5102442;27;20070;-84
2022/03/12 10:18:06;;;;;;;12.70;7.93;;;12.50;84.90;;;;;;5123177;27;20115;-81
2022/03/12 10:20:32;;;;;;;14.57;7.95;;;12.80;85.10;;;;;;5115282;27;20041;-82
2022/03/12 10:23:02;;;;;;;13.90;8.45;;;12.60;85.60;;;;;;5127472;27;20043;-81
2022/03/12 10:25:29;;;;;;;15.15;8.13;;;12.80;86.70;;;;;;5127301;27;20081;-81
2022/03/12 10:27:55;;;;;;;12.55;7.80;;;12.70;86.70;;;;;;5121298;27;20043;-81
2022/03/12 10:30:22;;;;;;;14.75;7.75;;;12.80;87.00;;;;;;5146744;27;20043;-81
2022/03/12 10:32:48;;;;;;;14.50;7.88;;;12.90;88.00;;;;;;5119217;27;20122;-82
2022/03/12 10:35:18;;;;;;;13.55;7.80;;;13.00;88.70;;;;;;5146572;27;20030;-81
2022/03/12 10:37:45;;;;;;;12.18;7.45;;;13.10;90.00;;;;;;5096868;27;20039;-82
2022/03/12 10:40:24;;;;;;;13.82;7.70;;;13.20;90.10;;;;;;5147016;27;20528;-81
2022/03/12 10:42:50;;;;;;;14.57;7.53;;;13.20;90.60;;;;;;5111487;27;20070;-80
2022/03/12 10:45:21;;;;;;;12.57;6.88;;;13.20;90.90;;;;;;5130755;27;20034;-81
2022/03/12 10:47:50;;;;;;;12.00;6.85;;;13.20;91.60;;;;;;5105003;27;20050;-83
2022/03/12 10:50:38;;;;;;;12.73;7.28;;;13.20;92.10;;;;;;5143330;27;20047;-82
2022/03/12 10:53:06;;;;;;;12.57;7.30;;;13.30;92.20;;;;;;5115913;27;20499;-82
2022/03/12 10:55:40;;;;;;;13.18;6.97;;;13.30;92.40;;;;;;5130165;27;20047;-81
2022/03/12 10:58:11;;;;;;;15.18;6.82;;;13.30;92.50;;;;;;5103259;27;20038;-81
2022/03/12 11:00:46;;;;;;;12.68;6.13;;;13.30;93.00;;;;;;5116043;27;20047;-81
2022/03/12 11:03:15;;;;;;;13.13;6.82;;;13.40;93.30;;;;;;5130741;27;20047;-81
2022/03/12 11:05:43;;;;;;;12.95;6.80;;;13.40;93.20;;;;;;5125250;27;20051;-83
2022/03/12 11:08:30;;;;;;;10.63;6.85;;;13.40;93.50;;;;;;5124708;27;20043;-85
2022/03/12 11:11:01;;;;;;;11.55;6.50;;;13.40;93.50;;;;;;5101346;27;20039;-81
2022/03/12 11:13:47;;;;;;;13.00;7.30;;;13.50;93.80;;;;;;5126379;27;20034;-80
2022/03/12 11:16:24;;;;;;;11.82;6.72;;;13.50;94.00;;;;;;5122421;27;20047;-80
2022/03/12 11:18:52;;;;;;;11.25;6.47;;;13.60;94.10;;;;;;5129426;27;20038;-82
2022/03/12 11:21:35;;;;;;;14.57;6.60;;;13.70;94.10;;;;;;5125964;27;20038;-82
2022/03/12 11:24:03;;;;;;;13.00;6.43;;;13.70;94.00;;;;;;5108310;27;20083;-81
2022/03/12 11:26:29;;;;;;;12.20;6.78;;;13.80;94.30;;;;;;5110699;27;20077;-82
2022/03/12 11:28:57;;;;;;;11.00;6.60;;;13.70;94.40;;;;;;5138286;27;20114;-84
2022/03/12 11:31:46;;;;;;;14.82;6.90;;;13.80;94.90;;;;;;5101883;27;20051;-80
2022/03/12 11:34:19;;;;;;;14.10;6.40;;;13.80;94.90;;;;;;5125430;27;20394;-81
2022/03/12 11:36:57;;;;;;;19.08;6.68;;;13.90;94.80;;;;;;5098611;27;20523;-81
2022/03/12 11:39:32;;;;;;;12.85;5.97;;;13.90;94.90;;;;;;5113912;27;20031;-80
2022/03/12 11:42:26;;;;;;;12.00;6.47;;;14.00;95.30;;;;;;5113875;27;20043;-81
2022/03/12 11:44:58;;;;;;;13.43;5.75;;;14.00;94.70;;;;;;5111679;27;20065;-81
2022/03/12 11:47:26;;;;;;;11.75;5.57;;;14.00;94.60;;;;;;5130125;27;20060;-82
2022/03/12 11:49:54;;;;;;;10.52;5.57;;;14.00;94.80;;;;;;5114163;27;20054;-81
2022/03/12 11:52:20;;;;;;;11.73;6.00;;;14.20;95.30;;;;;;5097983;27;20094;-81
2022/03/12 11:54:48;;;;;;;11.55;5.57;;;14.30;95.30;;;;;;5127331;27;20126;-85
2022/03/12 11:57:27;;;;;;;12.10;5.25;;;14.50;95.00;;;;;;5098389;27;20156;-80
2022/03/12 11:59:53;;;;;;;10.88;5.70;;;14.60;94.30;;;;;;5110665;27;20043;-80
2022/03/12 12:02:32;;;;;;;13.23;5.78;;;14.70;94.40;;;;;;5111241;27;20120;-82
2022/03/12 12:05:07;;;;;;;10.05;5.88;;;14.80;94.10;;;;;;5103614;27;20042;-81
2022/03/12 12:07:36;;;;;;;10.05;5.28;;;14.80;93.90;;;;;;5148199;27;20039;-80
2022/03/12 12:10:07;;;;;;;12.15;5.80;;;14.80;94.00;;;;;;5106758;27;20121;-82
2022/03/12 12:12:34;;;;;;;14.30;5.75;;;14.70;93.50;;;;;;5127751;27;20042;-82
2022/03/12 12:15:05;;;;;;;9.35;4.60;;;14.80;93.10;;;;;;5113793;27;20095;-81
2022/03/12 12:17:32;;;;;;;8.93;4.28;;;14.50;93.10;;;;;;5113498;27;20142;-83
2022/03/12 12:20:02;;;;;;;11.10;5.03;;;14.40;93.20;;;;;;5120144;27;20098;-82
2022/03/12 12:22:28;;;;;;;9.70;4.32;;;14.40;93.50;;;;;;5129111;27;20115;-81
2022/03/12 12:24:56;;;;;;;10.13;4.35;;;14.20;93.50;;;;;;5130831;27;20054;-81
2022/03/12 12:27:23;;;;;;;10.00;5.18;;;14.30;93.70;;;;;;5121969;27;20083;-81
2022/03/12 12:29:50;;;;;;;12.98;5.07;;;14.30;93.90;;;;;;5104639;27;20046;-82
2022/03/12 12:32:24;;;;;;;9.05;4.70;;;14.30;93.70;;;;;;5110401;27;20054;-85
2022/03/12 12:35:11;;;;;;;9.90;4.53;;;14.30;93.90;;;;;;5119433;27;20511;-81
2022/03/12 12:37:46;;;;;;;10.48;4.50;;;14.30;93.70;;;;;;5145954;27;20490;-83
2022/03/12 12:40:24;;;;;;;8.45;4.72;;;14.30;93.90;;;;;;5129771;27;20098;-81
2022/03/12 12:42:51;;;;;;;13.07;4.90;;;14.30;93.50;;;;;;5108528;27;20377;-79
2022/03/12 12:45:29;;;;;;;13.02;5.25;;;14.40;94.10;;;;;;5150260;27;20034;-82
2022/03/12 12:48:16;;;;;;;9.43;4.90;;;14.60;93.90;;;;;;5110231;27;20125;-83
2022/03/12 12:51:13;;;;;;;13.18;5.30;;;14.50;93.50;;;;;;5125113;27;20411;-80
2022/03/12 12:53:39;;;;;;;10.18;5.03;;;14.40;93.10;;;;;;5105147;27;20074;-82